大分空港の過去48時間の天気

大分空港 (Oita)

現在時刻: 9/23 06:25 JST (9/22 21:25 UTC) 以下の時間は現地時間です。

過去48時間のMETAR気象情報
時間 風向 風速(m/s) 視程 気温(℃) 湿度(%) 気圧(hPa) 天気現象
22 22:00 南南東 14 10km以上 27 89 993
22 21:00 南南東 14 10km以上 27 89 995
22 20:00 南南東 14 10km以上 27 89 995 弱いしゅう雨
22 19:00 南南東 13 7000m 27 89 996 弱いしゅう雨
22 18:00 南東 11 6000m 26 100 997
22 17:00 南東 14 6000m 26 100 997
22 16:00 南東 17 4000m 26 100 998 弱いしゅう雨 もや
22 15:41 南東 15 2500m 26 100 998 弱いしゅう雨 もや
22 15:21 南東 12 1500m 26 100 999 しゅう雨 もや
22 15:00 南東 13 2000m 25 100 1000 弱いしゅう雨 もや
22 14:30 南東 15 1500m 26 100 1001 しゅう雨 もや
22 14:00 南東 15 4000m 26 94 1001 弱いしゅう雨 もや
22 13:43 南東 14 1000m 26 94 1002 強いしゅう雨 もや
22 13:29 南東 12 1500m 26 94 1002 しゅう雨 もや
22 13:00 南東 14 7000m 26 94 1003 弱いしゅう雨
22 12:00 南東 14 7000m 27 94 1003 弱いしゅう雨
22 11:47 南東 13 4000m 26 100 1004 弱いしゅう雨 もや
22 11:24 南東 12 2000m 26 100 1004 しゅう雨 もや
22 11:14 南南東 10 2500m 26 100 1005 弱いしゅう雨 もや
22 11:00 南南東 11 1500m 26 100 1005 しゅう雨 もや
22 10:29 南東 12 7000m 26 100 1006 弱いしゅう雨
22 10:18 南東 11 1500m 25 100 1006 弱いしゅう雨 もや
22 10:00 東南東 13 2500m 25 100 1006 弱いしゅう雨 もや
22 09:42 東南東 11 2000m 26 89 1006 しゅう雨 もや
22 09:32 東南東 10 4500m 26 94 1006 弱いしゅう雨 もや
22 09:13 東南東 10 3000m 27 89 1006 しゅう雨 もや
22 09:00 東南東 9 8000m 25 100 1006 弱いしゅう雨
22 08:28 7 10km以上 24 100 1006 弱いしゅう雨
22 08:00 8 4500m 25 94 1007 弱いしゅう雨 もや
22 07:36 8 4000m 25 94 1007 弱いしゅう雨 もや
22 07:00 10 10km以上 24 100 1007 周辺でしゅう雨
21 22:26 東北東 6 2000m 23 100 1012 強いしゅう雨 もや
21 22:00 東北東 8 10km以上 24 94 1012 弱いしゅう雨
21 21:00 東北東 8 10km以上 24 94 1013 弱いしゅう雨
21 20:00 東北東 8 10km以上 24 94 1013
21 19:00 北東 7 10km以上 24 89 1013
21 18:00 北東 7 10km以上 24 89 1013
21 17:00 北東 7 10km以上 24 89 1012
21 16:00 北東 8 10km以上 24 83 1012
21 15:00 東北東 8 10km以上 23 89 1013
21 14:00 東北東 8 10km以上 23 89 1013
21 13:00 東北東 7 10km以上 23 89 1014
21 12:00 東北東 7 10km以上 23 89 1015
21 11:00 東北東 8 10km以上 22 88 1015
21 10:00 東北東 8 10km以上 22 88 1016
21 09:00 東北東 9 10km以上 22 88 1016
21 08:00 東北東 7 10km以上 22 88 1016
21 07:00 北東 9 10km以上 21 94 1016
RJFO 221300Z 15028KT 9999 FEW015 SCT040 BKN/// 27/25 Q0993
RJFO 221200Z 15027G37KT 9999 FEW015 SCT035 BKN/// 27/25 Q0995
RJFO 221100Z 15028KT 9999 -SHRA FEW015 SCT035 BKN/// 27/25 Q0995
RJFO 221000Z 16025G35KT 7000 -SHRA FEW015 BKN030 BKN110 27/25 Q0996
RJFO 220900Z 13022KT 6000 FEW015 SCT030 BKN050 26/26 Q0997
RJFO 220800Z 14027KT 6000 FEW006 SCT015 BKN050 26/26 Q0997
RJFO 220700Z 14034G45KT 4000 -SHRA BR FEW006 SCT015 BKN030 26/26 Q0998
RJFO 220641Z 14030G45KT 2500 -SHRA BR FEW006 SCT015 BKN025 26/26 Q0998 RMK 1ST006 4CU015 6CU025 A2950 P/FR
RJFO 220621Z 14024G38KT 1500 R01/P1800N SHRA BR FEW006 BKN015 BKN025 26/26 Q0999 RMK 2ST006 5CU015 6CU025 A2952
RJFO 220600Z 13025G37KT 2000 -SHRA BR FEW006 SCT015 BKN025 25/25 Q1000
RJFO 220530Z 13029G39KT 1500 R01/1100VP1800D SHRA BR FEW006 BKN020 BKN030 26/26 Q1001 RMK 2ST006 5CU020 6CU030 A2956
RJFO 220500Z 13030G40KT 4000 -SHRA BR FEW007 SCT015 BKN025 26/25 Q1001
RJFO 220443Z 13027G37KT 1000 R01/0500VP1800D +SHRA BR FEW006 BKN015 BKN025 26/25 Q1002 RMK 2ST006 5CU015 6CU025 A2960 RI++
RJFO 220429Z 13023KT 1500 R01/1200VP1800U SHRA BR FEW006 BKN020 BKN045 26/25 Q1002 RMK 2ST006 5CU020 6CU045 A2960
RJFO 220400Z 13028G41KT 7000 -SHRA FEW006 SCT040 BKN050 26/25 Q1003
RJFO 220300Z 13028KT 7000 -SHRA FEW004 SCT025 BKN035 27/26 Q1003
RJFO 220247Z 13025G37KT 4000 -SHRA BR FEW005 BKN015 BKN025 26/26 Q1004 RMK 1ST005 5CU015 7CU025 A2965
RJFO 220224Z 14024KT 2000 R01/0750VP1800U SHRA BR FEW005 BKN020 BKN025 26/26 Q1004 RMK 1ST005 5CU020 6CU025 A2967
RJFO 220214Z 16019KT 2500 R01/1300VP1800N -SHRA BR FEW009 BKN020 BKN025 26/26 Q1005 RMK 1ST009 5CU020 6CU025 A2968
RJFO 220200Z 16022G32KT 1500 R01/1000VP1800D SHRA BR FEW009 SCT015 BKN025 26/26 Q1005
RJFO 220129Z 14023G33KT 7000 -SHRA FEW009 SCT020 BKN030 26/26 Q1006 RMK 1ST009 4CU020 6CU030 A2971
RJFO 220118Z 13022G32KT 1500 R01/P1800N -SHRA BR FEW005 SCT025 BKN030 25/25 Q1006 RMK 1ST005 4CU025 6CU030 A2972
RJFO 220100Z 12026KT 2500 R01/1200VP1800U -SHRA BR FEW007 SCT015 BKN025 25/25 Q1006
RJFO 220042Z 11022G32KT 2000 SHRA BR FEW009 SCT035 BKN045 26/24 Q1006 RMK 1ST009 4CU035 7CU045 A2971
RJFO 220032Z 12020KT 4500 -SHRA BR FEW010 SCT035 BKN045 26/25 Q1006 RMK 1ST010 3CU035 6CU045 A2971
RJFO 220013Z 11020KT 3000 SHRA BR FEW005 SCT015 BKN035 27/25 Q1006 RMK 1ST005 4CU015 6CU035 A2972
RJFO 220000Z 11017KT 8000 -SHRA FEW005 SCT015 BKN035 25/25 Q1006
RJFO 212328Z 08014KT 9999 R01/1000VP1800U -SHRA FEW005 SCT015 BKN025 24/24 Q1006 RMK 1ST005 3CU015 5CU025 A2973
RJFO 212300Z 08016KT 4500 -SHRA BR FEW005 SCT015 BKN025 25/24 Q1007
RJFO 212236Z 08015KT 4000 R01/1300VP1800D -SHRA BR FEW005 SCT020 BKN025 25/24 Q1007 RMK 1ST005 3CU020 5CU025 A2974
RJFO 212200Z 08019KT 9999 VCSH FEW005 SCT020 BKN025 24/24 Q1007
RJFO 211326Z 06011KT 2000 R01/1000VP1800D +SHRA BR FEW008 BKN025 BKN045 23/23 Q1012 RMK 1ST008 5CU025 7CU045 A2991 RI++
RJFO 211300Z 06016KT 9999 -SHRA FEW009 BKN035 BKN045 24/23 Q1012
RJFO 211200Z 06016KT 9999 -SHRA FEW009 BKN030 BKN040 24/23 Q1013
RJFO 211100Z 06016KT 9999 FEW009 BKN025 BKN035 24/23 Q1013
RJFO 211000Z 05014KT 9999 FEW015 BKN025 BKN035 24/22 Q1013
RJFO 210900Z 05013KT 9999 FEW015 BKN025 BKN030 24/22 Q1013
RJFO 210800Z 05013KT 9999 FEW015 BKN025 BKN035 24/22 Q1012
RJFO 210700Z 05015KT 9999 FEW015 BKN025 BKN035 24/21 Q1012
RJFO 210600Z 06015KT 9999 FEW015 BKN025 BKN035 23/21 Q1013
RJFO 210500Z 07016KT 9999 FEW009 SCT020 BKN030 23/21 Q1013
RJFO 210400Z 06014KT 9999 FEW008 SCT015 BKN035 23/21 Q1014
RJFO 210300Z 06014KT 9999 FEW008 SCT020 BKN035 23/21 Q1015
RJFO 210200Z 06015KT 9999 FEW008 SCT015 BKN035 22/20 Q1015
RJFO 210100Z 06016KT 9999 FEW007 SCT015 BKN030 22/20 Q1016
RJFO 210000Z 06017KT 9999 FEW007 BKN020 BKN035 22/20 Q1016
RJFO 202300Z 06014KT 9999 FEW010 BKN015 BKN035 22/20 Q1016
RJFO 202200Z 05017KT 9999 FEW010 SCT015 BKN020 21/20 Q1016